Time;durP1;ratioP1;P1;durP2;ratioP2;P2;SDS_P1;SDS_P2;PMS_P1;PMS_P2;Temp;Humidity;BMP_temperature;BMP_pressure;BME280_temperature;BME280_humidity;BME280_pressure;Samples;Min_cycle;Max_cycle;Signal;HPM_P1;HPM_P2
2023/05/21 00:01:58;;;;;;;18.73;14.13;;;;;;;15.60;87.39;101297.06;5086275;28;20040;-74
2023/05/21 00:04:28;;;;;;;18.55;14.15;;;;;;;15.59;87.15;101292.72;5085878;28;20050;-73
2023/05/21 00:06:56;;;;;;;15.77;13.98;;;;;;;15.58;87.46;101295.47;5070443;28;20052;-73
2023/05/21 00:09:23;;;;;;;17.90;14.50;;;;;;;15.57;88.13;101284.00;5072039;28;20054;-73
2023/05/21 00:11:50;;;;;;;19.90;14.30;;;;;;;15.56;88.01;101292.09;5071317;28;20115;-73
2023/05/21 00:14:17;;;;;;;18.00;14.52;;;;;;;15.55;88.62;101283.28;5085409;28;20043;-73
2023/05/21 00:16:45;;;;;;;16.10;13.00;;;;;;;15.55;88.54;101285.09;5086063;28;20447;-72
2023/05/21 00:19:13;;;;;;;17.45;14.45;;;;;;;15.55;88.58;101287.75;5088119;28;20052;-74
2023/05/21 00:21:40;;;;;;;17.65;13.18;;;;;;;15.54;88.97;101272.78;5067941;28;20049;-74
2023/05/21 00:24:08;;;;;;;18.35;14.13;;;;;;;15.55;88.96;101277.13;5068583;28;20119;-74
2023/05/21 00:26:35;;;;;;;16.30;14.40;;;;;;;15.53;89.34;101273.72;5071058;28;20052;-74
2023/05/21 00:29:03;;;;;;;24.00;15.05;;;;;;;15.52;89.41;101272.88;5087608;28;20115;-74
2023/05/21 00:31:31;;;;;;;19.83;15.98;;;;;;;15.50;89.67;101273.94;5082849;28;20056;-74
2023/05/21 00:33:58;;;;;;;17.58;13.75;;;;;;;15.49;90.04;101266.91;5087219;28;20044;-74
2023/05/21 00:36:25;;;;;;;18.80;14.65;;;;;;;15.48;90.09;101271.38;5086029;28;20638;-74
2023/05/21 00:38:53;;;;;;;21.52;15.68;;;;;;;15.45;90.31;101269.81;5067479;28;20123;-74
2023/05/21 00:41:22;;;;;;;20.20;14.15;;;;;;;15.44;90.28;101262.81;5086484;28;20058;-74
2023/05/21 00:43:49;;;;;;;15.90;13.68;;;;;;;15.44;89.90;101269.88;5069805;28;20047;-74
2023/05/21 00:46:18;;;;;;;20.73;14.65;;;;;;;15.43;90.35;101263.75;5084994;28;20071;-73
2023/05/21 00:48:46;;;;;;;23.02;14.27;;;;;;;15.41;90.19;101264.81;5087982;28;20679;-74
2023/05/21 00:51:14;;;;;;;17.30;12.50;;;;;;;15.39;90.27;101266.72;5087267;28;20040;-76
2023/05/21 00:53:42;;;;;;;20.35;14.93;;;;;;;15.38;91.30;101265.03;5087793;28;20418;-73
2023/05/21 00:56:09;;;;;;;14.90;13.27;;;;;;;15.36;91.51;101258.97;5082132;28;20048;-74
2023/05/21 00:58:38;;;;;;;16.05;13.23;;;;;;;15.34;91.18;101252.91;5070916;28;20064;-74
2023/05/21 01:01:05;;;;;;;19.15;14.48;;;;;;;15.32;91.85;101247.72;5070719;28;20056;-74
2023/05/21 01:03:37;;;;;;;16.63;13.73;;;;;;;15.31;91.85;101238.06;5067419;28;20067;-73
2023/05/21 01:06:05;;;;;;;17.90;13.65;;;;;;;15.30;92.18;101251.44;5086260;28;20051;-73
2023/05/21 01:08:33;;;;;;;17.30;13.77;;;;;;;15.28;92.17;101248.03;5085721;28;20062;-73
2023/05/21 01:11:02;;;;;;;20.10;14.38;;;;;;;15.26;92.28;101248.13;5086247;28;20044;-73
2023/05/21 01:13:30;;;;;;;19.77;14.25;;;;;;;15.25;92.50;101238.47;5085875;28;20408;-74
2023/05/21 01:15:58;;;;;;;21.38;13.10;;;;;;;15.23;93.11;101244.88;5068089;28;21053;-73
2023/05/21 01:18:26;;;;;;;20.95;15.10;;;;;;;15.22;93.22;101236.06;5087937;28;20052;-73
2023/05/21 01:20:54;;;;;;;18.17;14.60;;;;;;;15.21;93.56;101242.28;5086416;28;20039;-74
2023/05/21 01:23:21;;;;;;;20.10;14.43;;;;;;;15.19;93.86;101234.44;5084347;28;20480;-73
2023/05/21 01:25:48;;;;;;;18.17;15.13;;;;;;;15.19;94.70;101241.56;5080645;28;20036;-73
2023/05/21 01:28:16;;;;;;;19.08;16.15;;;;;;;15.16;94.39;101239.13;5088629;28;20139;-73
2023/05/21 01:30:43;;;;;;;17.73;12.88;;;;;;;15.15;94.53;101237.41;5085892;28;20504;-73
2023/05/21 01:33:16;;;;;;;18.95;15.75;;;;;;;15.13;94.88;101245.50;5085784;28;20062;-73
2023/05/21 01:35:46;;;;;;;18.20;15.13;;;;;;;15.11;94.88;101241.22;5087120;28;20052;-72
2023/05/21 01:38:37;;;;;;;18.77;14.73;;;;;;;15.09;95.22;101246.66;5085381;28;20048;-73
2023/05/21 01:41:10;;;;;;;19.02;14.70;;;;;;;15.06;95.17;101238.91;5085142;28;20040;-73
2023/05/21 01:43:40;;;;;;;19.25;15.27;;;;;;;15.06;95.33;101246.84;5087795;28;20626;-74
2023/05/21 01:46:09;;;;;;;20.30;16.35;;;;;;;15.05;95.59;101239.84;5085025;28;20090;-74
2023/05/21 01:48:37;;;;;;;17.65;15.70;;;;;;;15.03;96.00;101235.59;5085162;28;20119;-74
2023/05/21 01:51:05;;;;;;;17.52;15.13;;;;;;;15.00;96.11;101236.66;5053499;28;20048;-74
2023/05/21 01:53:32;;;;;;;21.83;15.90;;;;;;;14.98;96.54;101230.59;5067811;28;20051;-73
2023/05/21 01:56:05;;;;;;;24.20;16.95;;;;;;;14.97;96.65;101231.56;5083500;28;20036;-74
2023/05/21 01:58:32;;;;;;;19.92;16.98;;;;;;;14.96;96.81;101232.53;5069384;28;20155;-75
2023/05/21 02:01:01;;;;;;;18.00;15.63;;;;;;;14.93;96.80;101225.63;5071596;28;20097;-74
2023/05/21 02:03:29;;;;;;;20.00;17.42;;;;;;;14.94;97.43;101229.97;5082983;28;20052;-75
2023/05/21 02:05:57;;;;;;;17.60;15.60;;;;;;;14.92;97.79;101228.38;5079063;28;20067;-79
2023/05/21 02:08:26;;;;;;;17.63;15.68;;;;;;;14.88;98.18;101225.06;5081791;28;20047;-73
2023/05/21 02:10:53;;;;;;;19.95;16.95;;;;;;;14.85;98.38;101216.47;5084715;28;20052;-74
2023/05/21 02:13:21;;;;;;;25.38;15.30;;;;;;;14.84;98.59;101225.38;5068637;28;20059;-73
2023/05/21 02:19:10;;;;;;;20.88;18.42;;;;;;;14.79;98.68;101224.84;5085190;28;20206;-74
2023/05/21 02:21:37;;;;;;;20.85;16.67;;;;;;;14.77;98.97;101222.31;5086334;28;20067;-74
2023/05/21 02:24:04;;;;;;;27.85;19.40;;;;;;;14.77;100.00;101221.44;5086477;28;20055;-74
2023/05/21 02:26:31;;;;;;;24.23;18.52;;;;;;;14.74;100.00;101221.66;5067253;28;20131;-74
2023/05/21 02:28:59;;;;;;;20.58;17.60;;;;;;;14.72;100.00;101213.78;5086636;28;20056;-73
2023/05/21 02:31:26;;;;;;;22.08;18.33;;;;;;;14.71;100.00;101219.22;5083865;28;20056;-75
2023/05/21 02:33:53;;;;;;;21.40;17.98;;;;;;;14.67;100.00;101216.75;5083790;28;20411;-74
2023/05/21 02:36:21;;;;;;;24.58;19.58;;;;;;;14.67;100.00;101210.59;5091213;28;20090;-74
2023/05/21 02:38:48;;;;;;;23.88;17.70;;;;;;;14.65;100.00;101213.38;5086950;28;20055;-74
2023/05/21 02:41:16;;;;;;;20.33;17.73;;;;;;;14.63;100.00;101215.28;5065416;28;20052;-74
2023/05/21 02:43:43;;;;;;;22.80;19.30;;;;;;;14.64;100.00;101216.13;5089870;28;20063;-73
2023/05/21 02:46:10;;;;;;;22.55;18.08;;;;;;;14.62;100.00;101215.38;5089573;28;20112;-74
2023/05/21 02:48:37;;;;;;;22.90;19.02;;;;;;;14.62;100.00;101213.56;5071455;28;20130;-73
2023/05/21 02:51:05;;;;;;;22.75;19.25;;;;;;;14.61;100.00;101214.53;5084560;28;20415;-74
2023/05/21 02:53:32;;;;;;;24.88;19.60;;;;;;;14.60;100.00;101206.69;5053857;28;20051;-74
2023/05/21 02:55:59;;;;;;;22.75;19.95;;;;;;;14.57;100.00;101201.59;5092773;28;20139;-74
2023/05/21 02:58:26;;;;;;;21.83;18.80;;;;;;;14.57;100.00;101206.88;5087699;28;20074;-74
2023/05/21 03:00:54;;;;;;;26.67;20.52;;;;;;;14.53;100.00;101200.94;5065891;28;20136;-74
2023/05/21 03:03:21;;;;;;;21.98;19.42;;;;;;;14.53;100.00;101197.44;5085203;28;20048;-73
2023/05/21 03:05:49;;;;;;;21.90;19.55;;;;;;;14.50;100.00;101198.50;5085244;28;20040;-74
2023/05/21 03:08:16;;;;;;;26.48;19.05;;;;;;;14.48;100.00;101195.09;5089363;28;20055;-73
2023/05/21 03:10:43;;;;;;;30.98;21.98;;;;;;;14.49;100.00;101190.63;5087029;28;20135;-73
2023/05/21 03:13:10;;;;;;;26.98;21.48;;;;;;;14.48;100.00;101196.84;5088946;28;20136;-73
2023/05/21 03:15:38;;;;;;;25.98;21.23;;;;;;;14.47;100.00;101192.53;5089081;28;20040;-73
2023/05/21 03:18:05;;;;;;;22.75;20.23;;;;;;;14.47;100.00;101189.88;5066891;28;20071;-75
2023/05/21 03:20:33;;;;;;;24.90;20.52;;;;;;;14.48;100.00;101202.16;5105367;28;20056;-73
2023/05/21 03:23:03;;;;;;;23.52;20.83;;;;;;;14.48;100.00;101197.75;5087220;28;20064;-73
2023/05/21 03:25:30;;;;;;;24.30;21.48;;;;;;;14.49;100.00;101194.13;5086180;28;20140;-74
2023/05/21 03:27:57;;;;;;;24.50;20.85;;;;;;;14.51;100.00;101194.06;5094085;28;20495;-74
2023/05/21 03:30:25;;;;;;;24.40;21.25;;;;;;;14.52;100.00;101195.75;5091263;28;20143;-73
2023/05/21 03:32:52;;;;;;;25.90;22.08;;;;;;;14.52;100.00;101196.59;5092123;28;20054;-73
2023/05/21 03:35:19;;;;;;;25.40;20.15;;;;;;;14.54;100.00;101192.03;5069394;28;20068;-73
2023/05/21 03:37:46;;;;;;;29.40;21.83;;;;;;;14.58;100.00;101195.31;5075293;28;20548;-74
2023/05/21 03:40:13;;;;;;;24.63;20.42;;;;;;;14.61;100.00;101195.97;5087184;28;20048;-73
2023/05/21 03:42:41;;;;;;;25.17;20.90;;;;;;;14.63;100.00;101198.50;5087566;28;20179;-73
2023/05/21 03:45:08;;;;;;;26.10;22.13;;;;;;;14.65;100.00;101196.63;5086886;28;20050;-73
2023/05/21 03:47:35;;;;;;;26.52;21.83;;;;;;;14.68;100.00;101196.44;5069271;28;21054;-74
2023/05/21 03:50:04;;;;;;;23.27;20.85;;;;;;;14.72;100.00;101207.66;5071056;28;20055;-73
2023/05/21 03:52:31;;;;;;;29.35;22.20;;;;;;;14.74;100.00;101203.97;5085214;28;20532;-73
2023/05/21 03:54:59;;;;;;;26.52;20.83;;;;;;;14.77;100.00;101206.41;5067018;28;20047;-73
2023/05/21 03:57:27;;;;;;;25.83;21.77;;;;;;;14.81;100.00;101207.03;5085333;28;20047;-74
2023/05/21 03:59:54;;;;;;;27.05;22.55;;;;;;;14.82;100.00;101206.09;5068913;28;20079;-73
2023/05/21 04:02:22;;;;;;;25.13;21.95;;;;;;;14.86;100.00;101204.91;5085785;28;20052;-73
2023/05/21 04:04:50;;;;;;;26.33;20.95;;;;;;;14.90;100.00;101206.41;5087072;28;20047;-74
2023/05/21 04:07:21;;;;;;;23.23;19.92;;;;;;;14.94;100.00;101203.44;5085630;28;20127;-74
2023/05/21 04:09:48;;;;;;;24.17;21.58;;;;;;;14.98;100.00;101206.75;5086569;28;20151;-74
2023/05/21 04:12:17;;;;;;;26.58;20.27;;;;;;;15.03;100.00;101204.63;5088127;28;20043;-75
2023/05/21 04:14:45;;;;;;;30.42;23.58;;;;;;;15.09;100.00;101200.72;5089363;28;20156;-74
2023/05/21 04:17:12;;;;;;;23.40;19.60;;;;;;;15.17;100.00;101203.69;5087523;28;20059;-74
2023/05/21 04:19:40;;;;;;;25.50;19.38;;;;;;;15.23;100.00;101213.88;5084716;28;20092;-74
2023/05/21 04:22:09;;;;;;;25.60;21.75;;;;;;;15.32;100.00;101213.25;5089100;28;20048;-73
2023/05/21 04:24:36;;;;;;;23.48;19.67;;;;;;;15.39;100.00;101219.81;5087332;28;20058;-74
2023/05/21 04:27:04;;;;;;;32.92;23.05;;;;;;;15.49;100.00;101219.16;5085211;28;20049;-74
2023/05/21 04:29:31;;;;;;;28.05;21.88;;;;;;;15.59;100.00;101221.06;5088517;28;20123;-74
2023/05/21 04:31:59;;;;;;;25.40;21.90;;;;;;;15.66;100.00;101213.53;5088569;28;20071;-74
2023/05/21 04:34:26;;;;;;;25.92;21.38;;;;;;;15.75;100.00;101222.66;5085481;28;20075;-74
2023/05/21 04:36:53;;;;;;;25.67;22.38;;;;;;;15.81;100.00;101224.91;5089626;28;20048;-75
2023/05/21 04:39:27;;;;;;;25.42;22.15;;;;;;;15.89;100.00;101225.19;5088171;28;20054;-73
2023/05/21 04:41:55;;;;;;;24.95;21.02;;;;;;;15.98;100.00;101228.97;5064725;28;20136;-75
2023/05/21 04:44:23;;;;;;;25.85;22.60;;;;;;;16.06;99.88;101224.81;5063833;28;20101;-74
2023/05/21 04:46:51;;;;;;;26.70;20.70;;;;;;;16.15;99.87;101220.66;5087545;28;20071;-74
2023/05/21 04:49:19;;;;;;;24.73;20.73;;;;;;;16.26;98.81;101222.53;5087363;28;20032;-74
2023/05/21 04:51:48;;;;;;;22.80;19.25;;;;;;;16.37;98.44;101226.09;5088361;28;20058;-75
2023/05/21 04:54:15;;;;;;;24.05;21.45;;;;;;;16.42;97.64;101223.09;5087384;28;20139;-74
2023/05/21 04:56:43;;;;;;;22.45;19.77;;;;;;;16.51;97.31;101229.53;5087558;28;20056;-76
2023/05/21 04:59:10;;;;;;;21.90;19.35;;;;;;;16.63;96.59;101232.13;5088015;28;20403;-74
2023/05/21 05:01:38;;;;;;;21.75;19.45;;;;;;;16.74;95.69;101225.19;5081269;28;20530;-74
2023/05/21 05:04:05;;;;;;;22.45;19.98;;;;;;;16.82;95.41;101225.47;5081511;28;20082;-74
2023/05/21 05:06:32;;;;;;;19.75;16.50;;;;;;;16.92;94.74;101213.16;5086663;28;20044;-75
2023/05/21 05:09:00;;;;;;;28.70;20.40;;;;;;;16.96;94.14;101214.63;5086875;28;20064;-74
2023/05/21 05:11:27;;;;;;;21.80;19.48;;;;;;;17.07;93.75;101219.97;5085924;28;20058;-76
2023/05/21 05:13:54;;;;;;;26.27;20.45;;;;;;;17.14;92.81;101229.16;5086796;28;20073;-74
2023/05/21 05:16:24;;;;;;;18.58;16.77;;;;;;;17.22;92.31;101228.59;5088409;28;20044;-75
2023/05/21 05:18:52;;;;;;;20.20;16.30;;;;;;;17.28;92.00;101235.25;5088255;28;20420;-74
2023/05/21 05:21:21;;;;;;;21.55;19.25;;;;;;;17.36;91.89;101227.50;5087679;28;20182;-75
2023/05/21 05:23:48;;;;;;;23.42;19.38;;;;;;;17.47;91.15;101232.84;5086011;28;20044;-75
2023/05/21 05:26:16;;;;;;;22.23;19.33;;;;;;;17.58;90.73;101235.50;5084362;28;20479;-74
2023/05/21 05:28:44;;;;;;;22.70;19.83;;;;;;;17.67;89.81;101232.13;5084434;28;20139;-75
2023/05/21 05:31:12;;;;;;;21.75;17.73;;;;;;;17.75;89.25;101238.69;5085638;28;20062;-75
2023/05/21 05:33:40;;;;;;;20.67;18.38;;;;;;;17.77;88.28;101234.09;5086077;28;20067;-74
2023/05/21 05:36:07;;;;;;;25.20;18.85;;;;;;;17.84;88.17;101232.66;5086358;28;20068;-75
2023/05/21 05:38:35;;;;;;;21.10;17.45;;;;;;;17.95;87.72;101236.13;5090584;28;20130;-74
2023/05/21 05:41:02;;;;;;;20.30;17.58;;;;;;;18.05;87.21;101235.38;5087081;28;20054;-74
2023/05/21 05:43:29;;;;;;;21.65;16.55;;;;;;;18.17;86.93;101237.91;5092698;28;20054;-74
2023/05/21 05:45:57;;;;;;;20.92;16.42;;;;;;;18.23;86.46;101232.06;5086423;28;20101;-75
2023/05/21 05:48:24;;;;;;;20.27;17.60;;;;;;;18.29;85.66;101233.41;5087484;28;20431;-72
2023/05/21 05:50:53;;;;;;;20.40;18.13;;;;;;;18.32;85.02;101232.28;5103492;28;20039;-74
2023/05/21 05:53:20;;;;;;;18.40;16.48;;;;;;;18.38;85.08;101226.47;5093170;28;20036;-74
2023/05/21 05:55:47;;;;;;;20.40;16.80;;;;;;;18.42;84.49;101234.09;5087193;28;20058;-74
2023/05/21 05:58:15;;;;;;;19.10;15.85;;;;;;;18.51;83.81;101229.84;5087600;28;20048;-74
2023/05/21 06:00:42;;;;;;;20.30;15.48;;;;;;;18.54;83.28;101226.03;5087235;28;20054;-75
2023/05/21 06:03:10;;;;;;;20.10;15.32;;;;;;;18.59;82.96;101224.69;5086184;28;20083;-73
2023/05/21 06:05:38;;;;;;;20.38;16.88;;;;;;;18.66;82.40;101223.22;5085366;28;20131;-73
2023/05/21 06:08:06;;;;;;;17.63;14.98;;;;;;;18.73;81.69;101212.88;5088927;28;20143;-74
2023/05/21 06:10:33;;;;;;;19.75;15.95;;;;;;;18.78;81.43;101216.03;5086339;28;20456;-75
2023/05/21 06:13:00;;;;;;;19.90;17.23;;;;;;;18.81;80.76;101223.78;5089282;28;20052;-74
2023/05/21 06:15:27;;;;;;;20.65;15.77;;;;;;;18.82;80.51;101216.59;5092739;28;20060;-75
2023/05/21 06:17:55;;;;;;;21.27;15.48;;;;;;;18.85;80.20;101221.69;5087971;28;20560;-74
2023/05/21 06:20:26;;;;;;;20.50;16.73;;;;;;;18.89;79.95;101217.78;5088528;28;20039;-76
2023/05/21 06:22:53;;;;;;;17.83;15.77;;;;;;;18.94;79.72;101216.41;5091081;28;20135;-76
2023/05/21 06:25:21;;;;;;;22.30;15.38;;;;;;;18.98;79.55;101215.19;5088537;28;20055;-74
2023/05/21 06:27:48;;;;;;;17.35;14.05;;;;;;;19.02;79.49;101213.13;5091513;28;20527;-74
2023/05/21 06:30:15;;;;;;;21.08;16.90;;;;;;;19.07;79.46;101218.06;5090809;28;20046;-75
2023/05/21 06:32:43;;;;;;;25.10;16.23;;;;;;;19.10;79.10;101217.81;5090298;28;20384;-74
2023/05/21 06:35:10;;;;;;;18.05;14.80;;;;;;;19.14;78.93;101213.91;5085827;28;20142;-74
2023/05/21 06:37:37;;;;;;;18.02;15.10;;;;;;;19.13;78.52;101213.03;5092040;28;20480;-74
2023/05/21 06:40:06;;;;;;;23.73;15.23;;;;;;;19.15;78.44;101210.25;5090571;28;20044;-73
2023/05/21 06:42:33;;;;;;;17.73;15.27;;;;;;;19.18;78.24;101212.63;5086134;28;20419;-73
2023/05/21 06:45:01;;;;;;;17.83;15.90;;;;;;;19.24;77.91;101209.47;5085159;28;20078;-75
2023/05/21 06:47:28;;;;;;;16.02;14.23;;;;;;;19.26;77.99;101215.50;5088819;28;20131;-76
2023/05/21 06:49:55;;;;;;;26.23;17.33;;;;;;;19.25;77.57;101211.13;5090480;28;20067;-75
2023/05/21 06:52:22;;;;;;;22.17;16.83;;;;;;;19.22;77.37;101206.91;5088691;28;20048;-74
2023/05/21 06:54:49;;;;;;;14.90;12.77;;;;;;;19.22;77.58;101209.56;5090630;28;20577;-75
2023/05/21 06:57:17;;;;;;;16.98;13.80;;;;;;;19.27;77.47;101209.16;5096040;28;20108;-75
2023/05/21 06:59:44;;;;;;;17.95;15.00;;;;;;;19.31;77.27;101201.75;5070677;28;20496;-74
2023/05/21 07:02:15;;;;;;;19.02;14.88;;;;;;;19.33;77.31;101207.81;5091816;28;20048;-75
2023/05/21 07:04:43;;;;;;;19.25;15.98;;;;;;;19.36;77.22;101212.88;5090418;28;20128;-75
2023/05/21 07:07:10;;;;;;;15.02;13.48;;;;;;;19.41;77.25;101211.50;5092500;28;20052;-75
2023/05/21 07:09:37;;;;;;;25.08;15.00;;;;;;;19.45;76.66;101212.06;5091990;28;20067;-75
2023/05/21 07:12:05;;;;;;;18.35;13.43;;;;;;;19.52;76.43;101215.91;5074595;28;20059;-74
2023/05/21 07:14:32;;;;;;;15.48;13.85;;;;;;;19.63;76.34;101223.00;5092149;28;20052;-75
2023/05/21 07:16:59;;;;;;;15.18;13.57;;;;;;;19.79;75.58;101214.50;5076502;28;20049;-75
2023/05/21 07:19:27;;;;;;;14.32;11.63;;;;;;;19.96;74.94;101211.19;5087303;28;20082;-76
2023/05/21 07:21:55;;;;;;;15.82;13.43;;;;;;;20.16;74.20;101204.88;5089875;28;20050;-74
2023/05/21 07:24:22;;;;;;;15.15;11.88;;;;;;;20.36;73.11;101204.91;5073052;28;20175;-74
2023/05/21 07:26:50;;;;;;;16.10;12.73;;;;;;;20.55;72.35;101212.13;5086812;28;20518;-75
2023/05/21 07:29:17;;;;;;;15.05;12.02;;;;;;;20.69;71.58;101207.19;5096026;28;20043;-74
2023/05/21 07:31:44;;;;;;;13.98;11.23;;;;;;;20.86;70.35;101210.16;5087656;27;20072;-74
2023/05/21 07:34:12;;;;;;;16.48;12.18;;;;;;;21.02;69.77;101210.38;5093896;28;20050;-75
2023/05/21 07:36:39;;;;;;;15.48;12.88;;;;;;;21.14;68.83;101205.72;5070302;28;20290;-74
2023/05/21 07:39:06;;;;;;;14.48;12.10;;;;;;;21.24;68.63;101214.56;5096833;28;20138;-73
2023/05/21 07:41:33;;;;;;;14.07;12.40;;;;;;;21.39;67.84;101205.13;5088273;28;20631;-75
2023/05/21 07:44:03;;;;;;;13.48;12.07;;;;;;;21.55;67.91;101211.69;5095943;28;20044;-74
2023/05/21 07:46:31;;;;;;;16.77;12.85;;;;;;;21.70;66.63;101204.81;5090685;28;20538;-75
2023/05/21 07:48:58;;;;;;;14.85;11.20;;;;;;;21.84;66.01;101212.41;5098283;28;20499;-74
2023/05/21 07:51:26;;;;;;;12.75;11.07;;;;;;;21.98;65.59;101211.03;5094052;28;20042;-74
2023/05/21 07:53:53;;;;;;;16.20;11.35;;;;;;;22.11;64.44;101208.84;5082750;28;20213;-73
2023/05/21 07:56:21;;;;;;;16.10;12.00;;;;;;;22.14;63.72;101208.56;5090818;28;20052;-74
2023/05/21 07:58:49;;;;;;;12.32;11.02;;;;;;;22.19;63.55;101206.25;5090291;28;20115;-74
2023/05/21 08:01:16;;;;;;;13.02;10.48;;;;;;;22.26;63.39;101208.34;5080066;28;20087;-76
2023/05/21 08:03:43;;;;;;;16.40;11.02;;;;;;;22.47;62.96;101200.84;5090341;28;20565;-75
2023/05/21 08:06:11;;;;;;;14.13;11.63;;;;;;;22.61;62.28;101199.47;5070354;28;20420;-74
2023/05/21 08:08:38;;;;;;;14.70;10.82;;;;;;;22.77;61.96;101193.38;5072672;28;20079;-74
2023/05/21 08:11:05;;;;;;;10.02;8.98;;;;;;;22.99;61.66;101207.16;5086777;28;20130;-74
2023/05/21 08:13:32;;;;;;;11.23;9.55;;;;;;;23.12;60.48;101201.38;5071599;28;20067;-75
2023/05/21 08:16:00;;;;;;;10.90;9.60;;;;;;;23.15;60.14;101203.75;5082717;28;20713;-73
2023/05/21 08:18:27;;;;;;;13.80;10.40;;;;;;;23.28;59.44;101197.97;5089416;28;20055;-73
2023/05/21 08:20:55;;;;;;;12.98;9.60;;;;;;;23.45;58.81;101199.72;5083682;28;20052;-73
2023/05/21 08:23:24;;;;;;;11.40;9.55;;;;;;;23.61;58.23;101207.03;5086724;28;20107;-73
2023/05/21 08:25:52;;;;;;;14.70;9.05;;;;;;;23.75;57.68;101206.44;5086958;28;20048;-74
2023/05/21 08:28:22;;;;;;;11.38;9.05;;;;;;;23.85;57.52;101200.09;5085210;28;20056;-73
2023/05/21 08:30:49;;;;;;;17.67;10.05;;;;;;;23.89;56.79;101201.47;5087864;28;20044;-74
2023/05/21 08:33:17;;;;;;;13.27;9.35;;;;;;;24.00;56.61;101202.00;5083205;28;20407;-75
2023/05/21 08:35:47;;;;;;;14.90;9.60;;;;;;;24.14;56.73;101199.69;5085708;28;20058;-74
2023/05/21 08:38:15;;;;;;;9.85;8.77;;;;;;;24.29;56.29;101194.50;5070511;28;20044;-73
2023/05/21 08:40:47;;;;;;;13.93;9.05;;;;;;;24.44;55.88;101195.53;5088892;28;20051;-75
2023/05/21 08:43:15;;;;;;;11.15;8.68;;;;;;;24.61;55.35;101197.22;5088011;28;20048;-75
2023/05/21 08:45:53;;;;;;;11.13;8.63;;;;;;;24.73;54.86;101203.97;5088843;28;20044;-75
2023/05/21 08:48:24;;;;;;;12.10;9.02;;;;;;;24.80;54.02;101201.44;5087635;28;20617;-74
2023/05/21 08:50:52;;;;;;;12.30;9.25;;;;;;;24.83;53.79;101205.66;5086258;28;20067;-74
2023/05/21 08:53:22;;;;;;;18.48;8.77;;;;;;;24.90;53.40;101203.94;5092955;28;20052;-74
2023/05/21 08:55:54;;;;;;;;;;;;;;;25.04;52.18;101205.09;5087151;28;20067;-74
2023/05/21 08:58:22;;;;;;;9.40;8.23;;;;;;;25.24;52.74;101199.22;5088027;28;19977;-74
2023/05/21 09:00:49;;;;;;;11.50;8.90;;;;;;;25.46;52.47;101197.63;5084969;28;20071;-74
2023/05/21 09:03:17;;;;;;;9.00;7.60;;;;;;;25.57;50.94;101196.41;5087255;28;20040;-74
2023/05/21 09:05:44;;;;;;;10.95;8.35;;;;;;;25.72;50.24;101202.78;5081066;28;20567;-74
2023/05/21 09:08:18;;;;;;;13.13;8.05;;;;;;;25.77;50.67;101198.75;5085887;28;20481;-74
2023/05/21 09:10:50;;;;;;;11.13;8.00;;;;;;;25.92;50.73;101196.97;5070700;28;20066;-75
2023/05/21 09:13:19;;;;;;;14.25;7.95;;;;;;;25.97;49.70;101200.81;5059973;28;20055;-74
2023/05/21 09:15:46;;;;;;;11.88;7.70;;;;;;;25.96;49.32;101201.00;5084577;28;20056;-74
2023/05/21 09:18:13;;;;;;;8.77;7.88;;;;;;;26.11;48.93;101201.91;5085287;28;20066;-74
2023/05/21 09:20:41;;;;;;;9.57;8.23;;;;;;;26.19;49.08;101206.41;5084835;28;20058;-74
2023/05/21 09:23:15;;;;;;;12.10;8.68;;;;;;;26.26;49.21;101193.91;5081283;28;20131;-74
2023/05/21 09:25:47;;;;;;;10.68;7.70;;;;;;;26.24;48.03;101199.47;5087131;28;20058;-74
2023/05/21 09:28:16;;;;;;;13.13;8.20;;;;;;;26.23;47.88;101208.59;5068604;28;20135;-74
2023/05/21 09:30:47;;;;;;;9.55;7.43;;;;;;;26.26;47.87;101193.91;5082807;28;20614;-74
2023/05/21 09:33:25;;;;;;;10.18;7.30;;;;;;;26.18;47.92;101205.59;5051500;28;20059;-74
2023/05/21 09:35:52;;;;;;;8.50;6.70;;;;;;;26.19;47.80;101199.16;5083933;28;20478;-74
2023/05/21 09:38:22;;;;;;;8.00;7.20;;;;;;;26.23;47.39;101191.56;5086203;28;20161;-73
2023/05/21 09:40:49;;;;;;;9.57;7.35;;;;;;;26.26;47.42;101194.75;5085903;28;20464;-75
2023/05/21 09:43:17;;;;;;;8.13;6.53;;;;;;;26.29;47.21;101184.59;5085925;28;20139;-74
2023/05/21 09:45:55;;;;;;;9.90;6.85;;;;;;;26.35;46.43;101186.59;5088160;28;20070;-73
2023/05/21 09:48:36;;;;;;;11.93;6.47;;;;;;;26.42;46.92;101195.63;5086159;28;20043;-73
2023/05/21 09:51:17;;;;;;;9.27;7.05;;;;;;;26.62;46.60;101182.53;5079902;28;20046;-73
2023/05/21 09:53:53;;;;;;;9.52;6.90;;;;;;;26.74;46.99;101187.28;5087360;28;20419;-74
2023/05/21 09:56:24;;;;;;;9.70;6.68;;;;;;;26.86;46.25;101184.16;5066876;28;20054;-74
2023/05/21 09:58:53;;;;;;;8.43;6.95;;;;;;;26.95;46.62;101172.25;5082750;28;20455;-73
2023/05/21 10:01:25;;;;;;;10.73;7.40;;;;;;;27.00;46.32;101178.78;5084668;28;20119;-74
2023/05/21 10:03:55;;;;;;;10.05;7.15;;;;;;;27.15;45.97;101176.09;5065157;28;20049;-74
2023/05/21 10:06:28;;;;;;;9.35;6.32;;;;;;;27.34;45.61;101171.19;5083540;28;20032;-73
2023/05/21 10:08:58;;;;;;;9.35;6.88;;;;;;;27.40;45.31;101171.28;5082890;28;20062;-74
2023/05/21 10:11:26;;;;;;;11.90;7.07;;;;;;;27.52;44.79;101163.53;5080689;28;20120;-75
2023/05/21 10:13:56;;;;;;;8.77;6.65;;;;;;;27.60;44.92;101162.56;5085484;28;20439;-73
2023/05/21 10:16:24;;;;;;;8.68;6.80;;;;;;;27.75;44.49;101158.84;5070064;28;20059;-74
2023/05/21 10:18:53;;;;;;;8.45;6.78;;;;;;;27.84;44.05;101161.47;5067606;28;20040;-73
2023/05/21 10:21:21;;;;;;;8.07;6.05;;;;;;;27.94;44.09;101157.41;5085183;28;20591;-74
2023/05/21 10:24:07;;;;;;;10.43;6.78;;;;;;;28.16;43.78;101152.84;5086417;28;20127;-73
2023/05/21 10:26:35;;;;;;;8.60;5.88;;;;;;;28.43;43.54;101151.25;5105903;28;20052;-74
2023/05/21 10:29:03;;;;;;;11.55;6.65;;;;;;;28.77;43.07;101147.78;5075176;28;20043;-74
2023/05/21 10:31:31;;;;;;;8.55;6.45;;;;;;;28.91;41.74;101145.16;5083924;28;20044;-74
2023/05/21 10:33:59;;;;;;;10.43;7.03;;;;;;;29.06;41.73;101145.09;5086010;28;20060;-74
2023/05/21 10:36:30;;;;;;;8.35;6.82;;;;;;;29.23;41.33;101150.00;5083886;28;20170;-75
2023/05/21 10:38:57;;;;;;;8.95;5.97;;;;;;;29.39;40.68;101148.81;5068579;28;20087;-74
2023/05/21 10:41:26;;;;;;;10.80;6.20;;;;;;;29.65;40.21;101142.69;5084780;28;20712;-74
2023/05/21 10:44:09;;;;;;;7.72;5.93;;;;;;;29.81;40.13;101143.34;5068656;28;20161;-73
2023/05/21 10:46:48;;;;;;;8.10;5.90;;;;;;;30.12;38.27;101135.50;5086116;28;20048;-75
2023/05/21 10:49:37;;;;;;;10.40;7.72;;;;;;;30.23;38.45;101137.66;5085528;28;20104;-74
2023/05/21 10:52:13;;;;;;;9.38;6.53;;;;;;;30.29;37.82;101141.41;5061566;28;20044;-74
2023/05/21 10:55:07;;;;;;;9.07;6.10;;;;;;;30.25;37.36;101140.97;5084404;28;20070;-74
2023/05/21 10:58:05;;;;;;;8.35;5.63;;;;;;;30.20;37.31;101129.91;5067683;28;20058;-74
2023/05/21 11:00:33;;;;;;;9.82;5.43;;;;;;;30.33;36.43;101133.69;5083292;28;20086;-74
2023/05/21 11:03:02;;;;;;;9.95;6.57;;;;;;;30.16;36.44;101138.66;5084192;28;20078;-74
2023/05/21 11:05:51;;;;;;;9.15;6.15;;;;;;;30.03;36.51;101125.88;5091146;28;20059;-74
2023/05/21 11:08:29;;;;;;;10.02;5.53;;;;;;;29.93;36.67;101128.16;5091152;28;20643;-74
2023/05/21 11:10:57;;;;;;;14.50;6.00;;;;;;;29.77;37.01;101124.78;5098594;28;20054;-74
2023/05/21 11:13:26;;;;;;;6.57;5.20;;;;;;;29.89;36.44;101119.59;5093996;28;20490;-74
2023/05/21 11:15:56;;;;;;;6.65;5.40;;;;;;;29.89;36.80;101132.31;5053967;28;20572;-74
2023/05/21 11:18:38;;;;;;;8.23;5.15;;;;;;;29.67;36.70;101121.59;5087796;28;20200;-74
2023/05/21 11:21:09;;;;;;;9.13;5.45;;;;;;;29.68;37.03;101127.91;5087118;28;20067;-74
2023/05/21 11:23:49;;;;;;;8.02;5.38;;;;;;;29.62;36.53;101123.25;5067560;28;20345;-74